Apiliotis — SYVY — position and weather

sailwx.info

Track history (hours):
 
Tides and Currents Weather Stations Pressure Air Temp Water Temp Dewpoint Dewpoint Depression Visibility Wind Speed Wind Dir Waves Ship Positions

Apiliotis

Last reported at 2014-Sep-30 17:33 UTC. Time now 2014-Sep-30 18:08 UTC.
Position N 36°50' E 025°51'.

Length 79 m; draft 4.5 m.

Type: Ship. MMSI: 240438000.

Date/timePositionNaut miles runAvg speedWind from/ knotsBaromVisibWave heightAir tempDewpointWater temp
2014-Sep-30 17:33N 36°50' E 025°51'8 7.8
2014-Sep-30 16:33N 36°48' E 025°42'1010.1
2014-Sep-30 15:33N 36°41' E 025°34'1110.5
2014-Sep-30 14:33N 36°33' E 025°25'9 8.8
2014-Sep-30 13:34N 36°24' E 025°25'1 1.0
2014-Sep-30 12:33N 36°23' E 025°26'0 0.0
2014-Sep-30 11:33N 36°23' E 025°26'0 0.1
2014-Sep-30 10:33N 36°23' E 025°26'8 8.4
2014-Sep-30 09:33N 36°25' E 025°16'1111.5
2014-Sep-30 08:33N 36°32' E 025°04'1111.0
2014-Sep-30 07:34N 36°40' E 024°55'1110.9
2014-Sep-30 06:33N 36°44' E 024°42'1111.1
2014-Sep-30 05:34N 36°47' E 024°29'4 4.0
2014-Sep-30 04:29N 36°43' E 024°27'0 0.0
2014-Sep-30 02:29N 36°43' E 024°27'0 0.0
2014-Sep-30 01:32N 36°43' E 024°27'0 0.0
2014-Sep-29 21:14N 36°43' E 024°27'0 0.0
2014-Sep-29 20:27N 36°43' E 024°27'0 0.0
2014-Sep-29 17:08N 36°43' E 024°27'0 0.0
2014-Sep-29 16:30N 36°43' E 024°27'0 0.0
2014-Sep-29 15:31N 36°43' E 024°27'0 0.0
2014-Sep-29 14:25N 36°43' E 024°27'0 0.0
2014-Sep-28 20:22N 36°43' E 024°27'0 0.0
2014-Sep-28 05:21N 36°43' E 024°27'0 0.0
2014-Sep-28 04:31N 36°43' E 024°27'0 0.0
2014-Sep-28 03:33N 36°43' E 024°27'0 0.0
2014-Sep-28 00:20N 36°43' E 024°27'0 0.0
2014-Sep-27 23:22N 36°43' E 024°27'0 0.0
2014-Sep-27 22:33N 36°43' E 024°27'0 0.0
2014-Sep-27 21:30N 36°43' E 024°27'0 0.0
2014-Sep-27 20:12N 36°43' E 024°27'0 0.0
2014-Sep-27 19:31N 36°43' E 024°27'0 0.0
2014-Sep-27 18:32N 36°43' E 024°27'0 0.0
2014-Sep-27 17:30N 36°43' E 024°27'0 0.0
2014-Sep-27 16:33N 36°43' E 024°27'0 0.0
2014-Sep-27 15:33N 36°43' E 024°27'0 0.0
2014-Sep-27 14:24N 36°43' E 024°27'0 0.0
2014-Sep-27 13:31N 36°43' E 024°27'3 0.7
2014-Sep-27 09:33N 36°44' E 024°24'1211.9
2014-Sep-27 08:31N 36°55' E 024°33'7 2.1
2014-Sep-27 05:07N 37°01' E 024°37'712.1
2014-Sep-27 04:34N 37°07' E 024°35'1211.8
2014-Sep-27 03:34N 37°19' E 024°34'1211.8
2014-Sep-27 02:34N 37°31' E 024°36'1211.8
2014-Sep-27 01:33N 37°42' E 024°37'  
2014-Sep-23 16:20N 38°18' E 025°53'911.9
2014-Sep-23 15:33N 38°09' E 025°48'1212.1
2014-Sep-23 14:33N 37°57' E 025°46'1212.2
2014-Sep-23 13:33N 37°45' E 025°42'1312.5
2014-Sep-23 12:33N 37°34' E 025°36'1212.2
2014-Sep-23 11:33N 37°23' E 025°28'1212.5
2014-Sep-23 10:33N 37°15' E 025°17'1211.9
2014-Sep-23 09:33N 37°05' E 025°08'1 0.5
2014-Sep-23 08:33N 37°05' E 025°08'0 0.0
2014-Sep-23 07:33N 37°05' E 025°08'0 0.0
2014-Sep-23 06:32N 37°05' E 025°08'1 0.5
2014-Sep-23 05:33N 37°05' E 025°09'0 0.0
2014-Sep-23 04:29N 37°05' E 025°09'2 1.8
2014-Sep-23 03:33N 37°07' E 025°08'10 9.7
2014-Sep-23 02:33N 37°08' E 025°20'3 2.7
2014-Sep-23 01:33N 37°06' E 025°22'0 0.1
2014-Sep-23 00:33N 37°06' E 025°22'0 0.0
2014-Sep-22 23:33N 37°06' E 025°22'0 0.1
2014-Sep-22 22:33N 37°06' E 025°22'0 0.0
2014-Sep-22 21:33N 37°06' E 025°22'0 0.0
2014-Sep-22 20:33N 37°06' E 025°22'0 0.4
2014-Sep-22 19:33N 37°06' E 025°22'0 0.0
2014-Sep-22 18:33N 37°06' E 025°22'0 0.0
2014-Sep-22 17:33N 37°06' E 025°22'6 6.1
2014-Sep-22 16:33N 37°11' E 025°17'1211.8
2014-Sep-22 15:33N 37°19' E 025°06'1110.6
2014-Sep-22 14:34N 37°26' E 024°56'0 0.0
2014-Sep-22 13:33N 37°26' E 024°56'0 0.0
2014-Sep-22 12:33N 37°26' E 024°56'0 0.0
2014-Sep-22 11:33N 37°26' E 024°56'0 0.0
2014-Sep-22 10:34N 37°26' E 024°56'0 0.0
2014-Sep-22 09:33N 37°26' E 024°56'0 0.0
2014-Sep-22 08:33N 37°26' E 024°56'0 0.0
2014-Sep-22 07:33N 37°26' E 024°56'0 0.0
2014-Sep-22 06:29N 37°26' E 024°56'0 0.0
2014-Sep-22 05:32N 37°26' E 024°56'1 0.6
2014-Sep-22 04:33N 37°26' E 024°57'1110.8
2014-Sep-22 03:33N 37°32' E 025°08'1 0.8
2014-Sep-22 02:33N 37°32' E 025°09'0 0.0
2014-Sep-22 01:33N 37°32' E 025°09'0 0.0
2014-Sep-22 00:33N 37°32' E 025°09'0 0.0
2014-Sep-21 23:33N 37°32' E 025°09'0 0.0
2014-Sep-21 22:33N 37°32' E 025°09'0 0.0
2014-Sep-21 21:33N 37°32' E 025°09'0 0.0
2014-Sep-21 20:33N 37°32' E 025°09'0 0.0
2014-Sep-21 19:33N 37°32' E 025°09'0 0.0
2014-Sep-21 18:33N 37°32' E 025°09'0 0.0
2014-Sep-21 17:33N 37°32' E 025°09'0 0.3
2014-Sep-21 16:33N 37°32' E 025°09'1412.1
2014-Sep-21 15:26N 37°32' E 024°52'1112.4
2014-Sep-21 14:33N 37°31' E 024°38'16 3.9
2014-Sep-21 10:33N 37°25' E 024°20'1211.9
2014-Sep-21 09:31N 37°30' E 024°06'1211.9
2014-Sep-21 08:30N 37°36' E 023°52'1111.1
2014-Sep-21 07:33N 37°41' E 023°41'1211.9
2014-Sep-21 06:34N 37°53' E 023°36'10 9.9
2014-Sep-21 05:33N 38°02' E 023°32'0 0.1
2014-Sep-21 04:33N 38°02' E 023°32'0 0.0
2014-Sep-21 03:33N 38°02' E 023°32'0 0.0
2014-Sep-21 02:33N 38°02' E 023°32'0 0.0
2014-Sep-21 01:33N 38°02' E 023°32'0 0.0
2014-Sep-21 00:32N 38°02' E 023°32'0 0.0
2014-Sep-20 23:33N 38°02' E 023°32'0 0.0
2014-Sep-20 22:33N 38°02' E 023°32'0 0.0
2014-Sep-20 21:33N 38°02' E 023°32'0 0.0
2014-Sep-20 20:33N 38°02' E 023°32'0 0.1
2014-Sep-20 19:33N 38°02' E 023°32'0 0.0
2014-Sep-20 18:33N 38°02' E 023°32'0 0.0
2014-Sep-20 17:33N 38°02' E 023°32'  
Track history (hours):
 
Tides and Currents Weather Stations Pressure Air Temp Water Temp Dewpoint Dewpoint Depression Visibility Wind Speed Wind Dir Waves Ship Positions

Apiliotis

Last reported at 2014-Sep-30 17:33 UTC. Time now 2014-Sep-30 18:08 UTC.
Position N 36°50' E 025°51'.

Length 79 m; draft 4.5 m.

Type: Ship. MMSI: 240438000.

Date/timePositionNaut miles runAvg speedWind from/ knotsBaromVisibWave heightAir tempDewpointWater temp
2014-Sep-30 17:33N 36°50' E 025°51'8 7.8
2014-Sep-30 16:33N 36°48' E 025°42'1010.1
2014-Sep-30 15:33N 36°41' E 025°34'1110.5
2014-Sep-30 14:33N 36°33' E 025°25'9 8.8
2014-Sep-30 13:34N 36°24' E 025°25'1 1.0
2014-Sep-30 12:33N 36°23' E 025°26'0 0.0
2014-Sep-30 11:33N 36°23' E 025°26'0 0.1
2014-Sep-30 10:33N 36°23' E 025°26'8 8.4
2014-Sep-30 09:33N 36°25' E 025°16'1111.5
2014-Sep-30 08:33N 36°32' E 025°04'1111.0
2014-Sep-30 07:34N 36°40' E 024°55'1110.9
2014-Sep-30 06:33N 36°44' E 024°42'1111.1
2014-Sep-30 05:34N 36°47' E 024°29'4 4.0
2014-Sep-30 04:29N 36°43' E 024°27'0 0.0
2014-Sep-30 02:29N 36°43' E 024°27'0 0.0
2014-Sep-30 01:32N 36°43' E 024°27'0 0.0
2014-Sep-29 21:14N 36°43' E 024°27'0 0.0
2014-Sep-29 20:27N 36°43' E 024°27'0 0.0
2014-Sep-29 17:08N 36°43' E 024°27'0 0.0
2014-Sep-29 16:30N 36°43' E 024°27'0 0.0
2014-Sep-29 15:31N 36°43' E 024°27'0 0.0
2014-Sep-29 14:25N 36°43' E 024°27'0 0.0
2014-Sep-28 20:22N 36°43' E 024°27'0 0.0
2014-Sep-28 05:21N 36°43' E 024°27'0 0.0
2014-Sep-28 04:31N 36°43' E 024°27'0 0.0
2014-Sep-28 03:33N 36°43' E 024°27'0 0.0
2014-Sep-28 00:20N 36°43' E 024°27'0 0.0
2014-Sep-27 23:22N 36°43' E 024°27'0 0.0
2014-Sep-27 22:33N 36°43' E 024°27'0 0.0
2014-Sep-27 21:30N 36°43' E 024°27'0 0.0
2014-Sep-27 20:12N 36°43' E 024°27'0 0.0
2014-Sep-27 19:31N 36°43' E 024°27'0 0.0
2014-Sep-27 18:32N 36°43' E 024°27'0 0.0
2014-Sep-27 17:30N 36°43' E 024°27'0 0.0
2014-Sep-27 16:33N 36°43' E 024°27'0 0.0
2014-Sep-27 15:33N 36°43' E 024°27'0 0.0
2014-Sep-27 14:24N 36°43' E 024°27'0 0.0
2014-Sep-27 13:31N 36°43' E 024°27'3 0.7
2014-Sep-27 09:33N 36°44' E 024°24'1211.9
2014-Sep-27 08:31N 36°55' E 024°33'7 2.1
2014-Sep-27 05:07N 37°01' E 024°37'712.1
2014-Sep-27 04:34N 37°07' E 024°35'1211.8
2014-Sep-27 03:34N 37°19' E 024°34'1211.8
2014-Sep-27 02:34N 37°31' E 024°36'1211.8
2014-Sep-27 01:33N 37°42' E 024°37'  
2014-Sep-23 16:20N 38°18' E 025°53'911.9
2014-Sep-23 15:33N 38°09' E 025°48'1212.1
2014-Sep-23 14:33N 37°57' E 025°46'1212.2
2014-Sep-23 13:33N 37°45' E 025°42'1312.5
2014-Sep-23 12:33N 37°34' E 025°36'1212.2
2014-Sep-23 11:33N 37°23' E 025°28'1212.5
2014-Sep-23 10:33N 37°15' E 025°17'1211.9
2014-Sep-23 09:33N 37°05' E 025°08'1 0.5
2014-Sep-23 08:33N 37°05' E 025°08'0 0.0
2014-Sep-23 07:33N 37°05' E 025°08'0 0.0
2014-Sep-23 06:32N 37°05' E 025°08'1 0.5
2014-Sep-23 05:33N 37°05' E 025°09'0 0.0
2014-Sep-23 04:29N 37°05' E 025°09'2 1.8
2014-Sep-23 03:33N 37°07' E 025°08'10 9.7
2014-Sep-23 02:33N 37°08' E 025°20'3 2.7
2014-Sep-23 01:33N 37°06' E 025°22'0 0.1
2014-Sep-23 00:33N 37°06' E 025°22'0 0.0
2014-Sep-22 23:33N 37°06' E 025°22'0 0.1
2014-Sep-22 22:33N 37°06' E 025°22'0 0.0
2014-Sep-22 21:33N 37°06' E 025°22'0 0.0
2014-Sep-22 20:33N 37°06' E 025°22'0 0.4
2014-Sep-22 19:33N 37°06' E 025°22'0 0.0
2014-Sep-22 18:33N 37°06' E 025°22'0 0.0
2014-Sep-22 17:33N 37°06' E 025°22'6 6.1
2014-Sep-22 16:33N 37°11' E 025°17'1211.8
2014-Sep-22 15:33N 37°19' E 025°06'1110.6
2014-Sep-22 14:34N 37°26' E 024°56'0 0.0
2014-Sep-22 13:33N 37°26' E 024°56'0 0.0
2014-Sep-22 12:33N 37°26' E 024°56'0 0.0
2014-Sep-22 11:33N 37°26' E 024°56'0 0.0
2014-Sep-22 10:34N 37°26' E 024°56'0 0.0
2014-Sep-22 09:33N 37°26' E 024°56'0 0.0
2014-Sep-22 08:33N 37°26' E 024°56'0 0.0
2014-Sep-22 07:33N 37°26' E 024°56'0 0.0
2014-Sep-22 06:29N 37°26' E 024°56'0 0.0
2014-Sep-22 05:32N 37°26' E 024°56'1 0.6
2014-Sep-22 04:33N 37°26' E 024°57'1110.8
2014-Sep-22 03:33N 37°32' E 025°08'1 0.8
2014-Sep-22 02:33N 37°32' E 025°09'0 0.0
2014-Sep-22 01:33N 37°32' E 025°09'0 0.0
2014-Sep-22 00:33N 37°32' E 025°09'0 0.0
2014-Sep-21 23:33N 37°32' E 025°09'0 0.0
2014-Sep-21 22:33N 37°32' E 025°09'0 0.0
2014-Sep-21 21:33N 37°32' E 025°09'0 0.0
2014-Sep-21 20:33N 37°32' E 025°09'0 0.0
2014-Sep-21 19:33N 37°32' E 025°09'0 0.0
2014-Sep-21 18:33N 37°32' E 025°09'0 0.0
2014-Sep-21 17:33N 37°32' E 025°09'0 0.3
2014-Sep-21 16:33N 37°32' E 025°09'1412.1
2014-Sep-21 15:26N 37°32' E 024°52'1112.4
2014-Sep-21 14:33N 37°31' E 024°38'16 3.9
2014-Sep-21 10:33N 37°25' E 024°20'1211.9
2014-Sep-21 09:31N 37°30' E 024°06'1211.9
2014-Sep-21 08:30N 37°36' E 023°52'1111.1
2014-Sep-21 07:33N 37°41' E 023°41'1211.9
2014-Sep-21 06:34N 37°53' E 023°36'10 9.9
2014-Sep-21 05:33N 38°02' E 023°32'0 0.1
2014-Sep-21 04:33N 38°02' E 023°32'0 0.0
2014-Sep-21 03:33N 38°02' E 023°32'0 0.0
2014-Sep-21 02:33N 38°02' E 023°32'0 0.0
2014-Sep-21 01:33N 38°02' E 023°32'0 0.0
2014-Sep-21 00:32N 38°02' E 023°32'0 0.0
2014-Sep-20 23:33N 38°02' E 023°32'0 0.0
2014-Sep-20 22:33N 38°02' E 023°32'0 0.0
2014-Sep-20 21:33N 38°02' E 023°32'0 0.0
2014-Sep-20 20:33N 38°02' E 023°32'0 0.1
2014-Sep-20 19:33N 38°02' E 023°32'0 0.0
2014-Sep-20 18:33N 38°02' E 023°32'0 0.0
2014-Sep-20 17:33N 38°02' E 023°32'  

Dump ship's entire track history